createdAt,value
2023-07-15T00:02:18.933Z,9.73
2023-07-15T00:05:25.331Z,10.57
2023-07-15T00:08:29.118Z,10.70
2023-07-15T00:11:35.836Z,10.20
2023-07-15T00:14:40.658Z,11.30
2023-07-15T00:17:44.316Z,10.37
2023-07-15T00:20:48.135Z,10.77
2023-07-15T00:23:54.514Z,10.03
2023-07-15T00:27:00.090Z,10.57
2023-07-15T00:30:05.364Z,11.10
2023-07-15T00:33:14.725Z,11.47
2023-07-15T00:36:18.670Z,11.50
2023-07-15T00:39:21.910Z,11.20
2023-07-15T00:43:03.654Z,11.10
2023-07-15T00:46:50.255Z,11.73
2023-07-15T00:49:53.669Z,10.80
2023-07-15T00:52:56.864Z,10.63
2023-07-15T00:56:00.123Z,10.43
2023-07-15T00:59:04.342Z,11.07
2023-07-15T01:02:10.417Z,11.47
2023-07-15T01:05:13.966Z,11.00
2023-07-15T01:08:17.115Z,10.73
2023-07-15T01:11:21.179Z,10.23
2023-07-15T01:14:24.512Z,10.13
2023-07-15T01:17:29.630Z,10.03
2023-07-15T01:20:33.632Z,11.17
2023-07-15T01:23:38.445Z,9.93
2023-07-15T01:26:41.559Z,10.23
2023-07-15T01:29:45.513Z,9.97
2023-07-15T01:32:48.902Z,10.37
2023-07-15T01:35:52.255Z,9.73
2023-07-15T01:38:57.198Z,10.10
2023-07-15T01:42:00.217Z,10.17
2023-07-15T01:45:04.829Z,9.50
2023-07-15T01:48:08.900Z,10.17
2023-07-15T01:51:12.210Z,10.50
2023-07-15T01:54:16.702Z,11.93
2023-07-15T01:57:19.732Z,9.80
2023-07-15T02:00:22.826Z,10.20
2023-07-15T02:03:26.032Z,9.90
2023-07-15T02:06:29.306Z,10.93
2023-07-15T02:09:35.516Z,10.37
2023-07-15T02:12:38.975Z,10.40
2023-07-15T02:15:42.079Z,10.13
2023-07-15T02:18:45.306Z,10.50
2023-07-15T02:21:48.397Z,9.80
2023-07-15T02:24:53.022Z,10.23
2023-07-15T02:27:56.200Z,10.73
2023-07-15T02:30:59.431Z,10.53
2023-07-15T02:34:02.602Z,10.50
2023-07-15T02:37:05.884Z,10.37
2023-07-15T02:40:11.767Z,10.73
2023-07-15T02:43:14.987Z,10.43
2023-07-15T02:46:18.291Z,9.33
2023-07-15T02:49:21.639Z,10.33
2023-07-15T02:52:25.645Z,10.13
2023-07-15T02:55:31.311Z,10.17
2023-07-15T02:58:35.265Z,11.30
2023-07-15T03:01:39.029Z,10.50
2023-07-15T03:04:42.231Z,10.20
2023-07-15T03:07:46.357Z,11.37
2023-07-15T03:10:51.525Z,10.83
2023-07-15T03:13:55.637Z,11.83
2023-07-15T03:16:58.755Z,12.60
2023-07-15T03:20:01.905Z,13.40
2023-07-15T03:23:05.439Z,13.43
2023-07-15T03:26:10.075Z,13.03
2023-07-15T03:29:13.284Z,13.33
2023-07-15T03:32:16.934Z,14.73
2023-07-15T03:35:19.956Z,26.67
2023-07-15T03:38:23.105Z,29.67
2023-07-15T03:41:27.870Z,19.63
2023-07-15T03:44:30.870Z,21.60
2023-07-15T03:47:35.171Z,16.27
2023-07-15T03:50:38.304Z,13.20
2023-07-15T03:53:41.690Z,13.67
2023-07-15T03:56:46.189Z,12.27
2023-07-15T03:59:49.261Z,12.60
2023-07-15T04:02:55.437Z,13.70
2023-07-15T04:05:58.589Z,13.37
2023-07-15T04:09:01.698Z,18.67
2023-07-15T04:12:09.475Z,26.90
2023-07-15T04:15:12.884Z,26.77
2023-07-15T04:18:17.995Z,23.83
2023-07-15T04:21:21.013Z,23.93
2023-07-15T04:24:24.032Z,33.87
2023-07-15T04:27:28.485Z,31.40
2023-07-15T04:30:31.632Z,23.67
2023-07-15T04:33:34.990Z,20.77
2023-07-15T04:36:38.175Z,20.47
2023-07-15T04:39:41.389Z,18.47
2023-07-15T04:42:46.829Z,17.10
2023-07-15T04:45:50.139Z,18.03
2023-07-15T04:48:53.667Z,14.07
2023-07-15T04:51:56.803Z,16.23
2023-07-15T04:55:00.205Z,15.40
2023-07-15T04:58:05.055Z,21.03
2023-07-15T05:01:08.656Z,28.77
2023-07-15T05:04:11.813Z,21.53
2023-07-15T05:07:15.075Z,15.90
2023-07-15T05:10:18.126Z,17.13
2023-07-15T05:13:23.099Z,15.20
2023-07-15T05:16:26.385Z,16.17
2023-07-15T05:19:29.591Z,18.43
2023-07-15T05:22:32.713Z,15.80
2023-07-15T05:25:36.927Z,15.60
2023-07-15T05:28:41.597Z,21.20
2023-07-15T05:31:47.072Z,19.27
2023-07-15T05:34:50.742Z,17.07
2023-07-15T05:37:53.838Z,16.80
2023-07-15T05:40:58.226Z,17.10
2023-07-15T05:44:03.135Z,15.43
2023-07-15T05:47:06.675Z,15.50
2023-07-15T05:50:10.998Z,14.73
2023-07-15T05:53:14.108Z,15.30
2023-07-15T05:56:17.680Z,15.93
2023-07-15T05:59:23.281Z,24.43
2023-07-15T06:02:27.888Z,20.00
2023-07-15T06:05:31.986Z,16.10
2023-07-15T06:08:35.141Z,14.83
2023-07-15T06:11:38.152Z,15.43
2023-07-15T06:14:42.674Z,14.53
2023-07-15T06:17:46.173Z,15.03
2023-07-15T06:20:50.122Z,15.80
2023-07-15T06:23:53.183Z,14.47
2023-07-15T06:26:56.409Z,13.70
2023-07-15T06:30:01.722Z,12.47
2023-07-15T06:33:04.944Z,12.90
2023-07-15T06:36:09.074Z,15.90
2023-07-15T06:39:12.189Z,17.80
2023-07-15T06:42:15.479Z,15.20
2023-07-15T06:45:21.717Z,14.70
2023-07-15T06:48:25.198Z,13.37
2023-07-15T06:51:28.271Z,18.93
2023-07-15T06:54:33.871Z,13.17
2023-07-15T06:57:36.939Z,13.50
2023-07-15T07:00:42.486Z,15.40
2023-07-15T07:03:46.462Z,13.67
2023-07-15T07:06:49.584Z,13.10
2023-07-15T07:09:52.613Z,14.17
2023-07-15T07:12:55.660Z,12.77
2023-07-15T07:16:00.672Z,11.63
2023-07-15T07:19:03.995Z,11.90
2023-07-15T07:22:07.296Z,11.00
2023-07-15T07:25:11.369Z,12.60
2023-07-15T07:28:14.481Z,12.83
2023-07-15T07:31:20.000Z,12.70
2023-07-15T07:34:23.411Z,11.67
2023-07-15T07:37:26.935Z,12.23
2023-07-15T07:40:30.242Z,13.57
2023-07-15T07:43:33.633Z,14.50
2023-07-15T07:46:38.433Z,17.67
2023-07-15T07:49:41.619Z,16.63
2023-07-15T07:52:44.756Z,16.47
2023-07-15T07:55:47.771Z,16.37
2023-07-15T07:58:55.981Z,13.80
2023-07-15T08:02:00.452Z,19.53
2023-07-15T08:05:03.798Z,19.17
2023-07-15T08:08:06.956Z,19.43
2023-07-15T08:11:10.009Z,17.80
2023-07-15T08:14:13.108Z,19.53
2023-07-15T08:17:17.985Z,20.00
2023-07-15T08:20:21.065Z,22.90
2023-07-15T08:23:24.108Z,22.50
2023-07-15T08:26:27.471Z,24.33
2023-07-15T08:29:30.535Z,25.60
2023-07-15T08:32:34.978Z,25.90
2023-07-15T08:35:38.223Z,25.43
2023-07-15T08:38:41.443Z,27.33
2023-07-15T08:41:45.019Z,28.60
2023-07-15T08:44:48.659Z,27.97
2023-07-15T08:47:53.508Z,26.40
2023-07-15T08:50:59.380Z,26.47
2023-07-15T08:54:03.681Z,25.97
2023-07-15T08:57:08.941Z,27.53
2023-07-15T09:00:13.405Z,29.90
2023-07-15T09:03:18.065Z,34.00
2023-07-15T09:06:21.200Z,35.90
2023-07-15T09:09:33.318Z,37.47
2023-07-15T09:12:36.369Z,37.30
2023-07-15T09:15:39.453Z,37.93
2023-07-15T09:18:45.479Z,40.67
2023-07-15T09:21:54.158Z,48.40
2023-07-15T09:25:04.821Z,48.20
2023-07-15T09:28:10.730Z,48.13
2023-07-15T09:31:23.953Z,45.43
2023-07-15T09:34:28.841Z,44.60
2023-07-15T09:37:33.241Z,43.70
2023-07-15T09:40:43.229Z,46.13
2023-07-15T09:43:48.140Z,44.10
2023-07-15T09:46:51.527Z,43.30
2023-07-15T09:49:56.165Z,41.83
2023-07-15T09:53:01.376Z,41.50
2023-07-15T09:56:07.791Z,40.70
2023-07-15T09:59:17.691Z,42.03
2023-07-15T10:02:34.624Z,41.67
2023-07-15T10:05:39.807Z,42.43
2023-07-15T10:08:43.781Z,38.90
2023-07-15T10:11:47.264Z,39.80
2023-07-15T10:14:51.040Z,40.63
2023-07-15T10:17:54.294Z,37.77
2023-07-15T10:21:00.180Z,37.93
2023-07-15T10:24:11.517Z,37.40
2023-07-15T10:27:16.191Z,35.40
2023-07-15T10:30:24.934Z,34.70
2023-07-15T10:33:28.248Z,34.97
2023-07-15T10:36:40.376Z,33.00
2023-07-15T10:39:44.214Z,34.27
2023-07-15T10:42:47.345Z,32.70
2023-07-15T10:45:54.020Z,32.60
2023-07-15T10:48:57.166Z,33.07
2023-07-15T10:58:09.542Z,30.90
2023-07-15T11:01:14.153Z,30.20
2023-07-15T11:04:21.274Z,28.47
2023-07-15T11:07:26.727Z,28.60
2023-07-15T11:10:35.169Z,27.33
2023-07-15T11:13:39.223Z,27.23
2023-07-15T11:16:42.377Z,26.90
2023-07-15T11:19:45.482Z,25.77
2023-07-15T11:22:49.989Z,26.30
2023-07-15T11:25:53.109Z,24.70
2023-07-15T11:28:58.932Z,25.53
2023-07-15T11:32:03.550Z,24.20
2023-07-15T11:35:14.192Z,23.83
2023-07-15T11:38:30.757Z,23.37
2023-07-15T11:41:35.426Z,24.50
2023-07-15T11:44:38.764Z,23.83
2023-07-15T11:47:44.117Z,22.43
2023-07-15T11:50:47.453Z,21.43
2023-07-15T11:53:54.688Z,20.83
2023-07-15T11:56:59.911Z,20.90
2023-07-15T12:00:03.850Z,21.67
2023-07-15T12:03:10.072Z,19.97
2023-07-15T12:06:17.818Z,20.87
2023-07-15T12:09:23.935Z,19.80
2023-07-15T12:12:26.993Z,20.37
2023-07-15T12:15:30.132Z,18.60
2023-07-15T12:18:33.176Z,18.40
2023-07-15T12:21:36.374Z,18.13
2023-07-15T12:24:42.943Z,17.97
2023-07-15T12:27:48.384Z,17.20
2023-07-15T12:30:51.525Z,17.27
2023-07-15T12:33:54.668Z,17.10
2023-07-15T12:36:59.479Z,16.93
2023-07-15T12:40:04.530Z,17.00
2023-07-15T12:43:07.623Z,16.43
2023-07-15T12:46:11.163Z,16.47
2023-07-15T12:49:14.285Z,15.53
2023-07-15T12:52:17.466Z,18.50
2023-07-15T12:55:21.908Z,18.20
2023-07-15T12:58:25.694Z,17.37
2023-07-15T13:01:28.971Z,17.70
2023-07-15T13:04:32.352Z,18.60
2023-07-15T13:07:35.551Z,18.63
2023-07-15T13:10:40.097Z,18.60
2023-07-15T13:13:43.165Z,18.47
2023-07-15T13:16:46.335Z,18.33
2023-07-15T13:19:49.411Z,17.00
2023-07-15T13:22:52.557Z,16.93
2023-07-15T13:25:56.996Z,16.63
2023-07-15T13:29:00.128Z,17.57
2023-07-15T13:32:03.464Z,17.43
2023-07-15T13:35:07.186Z,17.20
2023-07-15T13:38:10.211Z,17.50
2023-07-15T13:41:14.778Z,16.53
2023-07-15T13:44:18.050Z,25.90
2023-07-15T13:47:21.252Z,27.20
2023-07-15T13:50:24.467Z,27.60
2023-07-15T13:53:27.596Z,28.33
2023-07-15T13:56:32.251Z,28.00
2023-07-15T13:59:35.353Z,27.93
2023-07-15T14:02:38.487Z,30.37
2023-07-15T14:05:41.688Z,31.50
2023-07-15T14:08:44.782Z,34.10
2023-07-15T14:11:49.367Z,34.50
2023-07-15T14:14:52.526Z,34.27
2023-07-15T14:17:57.440Z,34.87
2023-07-15T14:21:00.605Z,35.17
2023-07-15T14:24:05.295Z,35.03
2023-07-15T14:27:11.792Z,35.60
2023-07-15T14:30:15.073Z,36.80
2023-07-15T14:33:18.201Z,36.57
2023-07-15T14:36:21.286Z,35.73
2023-07-15T14:39:24.502Z,37.80
2023-07-15T14:42:29.214Z,36.63
2023-07-15T14:45:32.645Z,35.70
2023-07-15T14:48:36.347Z,36.63
2023-07-15T14:51:39.514Z,36.47
2023-07-15T14:54:42.624Z,36.53
2023-07-15T14:57:47.400Z,36.80
2023-07-15T15:00:50.589Z,37.37
2023-07-15T15:03:53.776Z,35.70
2023-07-15T15:06:56.934Z,36.00
2023-07-15T15:09:59.990Z,34.33
2023-07-15T15:13:04.537Z,38.17
2023-07-15T15:16:11.510Z,37.77
2023-07-15T15:19:14.630Z,38.43
2023-07-15T15:22:17.855Z,36.00
2023-07-15T15:25:20.925Z,37.27
2023-07-15T15:28:25.484Z,36.70
2023-07-15T15:31:28.731Z,37.27
2023-07-15T15:34:31.951Z,38.50
2023-07-15T15:37:35.541Z,36.43
2023-07-15T15:40:38.744Z,36.37
2023-07-15T15:43:43.345Z,37.70
2023-07-15T15:46:46.457Z,36.17
2023-07-15T15:49:49.595Z,35.50
2023-07-15T15:52:52.702Z,37.20
2023-07-15T15:55:55.889Z,36.33
2023-07-15T15:59:00.455Z,35.87
2023-07-15T16:02:03.805Z,38.87
2023-07-15T16:05:07.933Z,39.70
2023-07-15T16:08:10.987Z,40.60
2023-07-15T16:11:14.556Z,43.03
2023-07-15T16:14:19.413Z,51.97
2023-07-15T16:17:22.630Z,52.43
2023-07-15T16:20:25.899Z,50.67
2023-07-15T16:23:28.917Z,51.20
2023-07-15T16:26:32.011Z,50.67
2023-07-15T16:29:36.607Z,51.17
2023-07-15T16:32:39.639Z,50.30
2023-07-15T16:35:42.814Z,51.53
2023-07-15T16:38:45.850Z,50.50
2023-07-15T16:41:49.160Z,53.63
2023-07-15T16:44:53.596Z,54.83
2023-07-15T16:47:56.905Z,58.73
2023-07-15T16:51:00.018Z,55.20
2023-07-15T16:54:03.121Z,56.50
2023-07-15T16:57:06.759Z,58.53
2023-07-15T17:00:12.743Z,58.60
2023-07-15T17:03:15.916Z,59.10
2023-07-15T17:06:19.125Z,59.83
2023-07-15T17:09:32.404Z,59.77
2023-07-15T17:12:35.793Z,61.50
2023-07-15T17:15:40.289Z,63.50
2023-07-15T17:18:43.350Z,63.03
2023-07-15T17:21:46.571Z,64.70
2023-07-15T17:24:52.716Z,66.80
2023-07-15T17:27:55.959Z,63.83
2023-07-15T17:31:00.414Z,65.60
2023-07-15T17:34:03.682Z,63.13
2023-07-15T17:37:07.577Z,64.30
2023-07-15T17:40:11.362Z,61.50
2023-07-15T17:43:14.403Z,61.73
2023-07-15T17:46:18.977Z,58.17
2023-07-15T17:49:22.102Z,59.87
2023-07-15T17:52:25.482Z,56.00
2023-07-15T17:55:28.536Z,53.70
2023-07-15T17:58:31.699Z,53.00
2023-07-15T18:01:36.194Z,52.27
2023-07-15T18:04:40.128Z,51.27
2023-07-15T18:07:43.199Z,49.97
2023-07-15T18:10:46.305Z,50.07
2023-07-15T18:13:49.397Z,51.20
2023-07-15T18:16:55.168Z,52.40
2023-07-15T18:19:58.198Z,50.23
2023-07-15T18:23:01.405Z,49.33
2023-07-15T18:26:04.541Z,47.70
2023-07-15T18:29:07.592Z,48.20
2023-07-15T18:32:12.820Z,46.10
2023-07-15T18:35:16.021Z,44.80
2023-07-15T18:38:19.220Z,43.90
2023-07-15T18:41:22.283Z,40.47
2023-07-15T18:44:25.474Z,22.70
2023-07-15T18:47:29.979Z,15.87
2023-07-15T18:50:33.098Z,13.30
2023-07-15T18:53:36.167Z,12.90
2023-07-15T18:56:39.257Z,11.47
2023-07-15T18:59:42.488Z,13.07
2023-07-15T19:02:47.110Z,12.30
2023-07-15T19:05:51.587Z,11.73
2023-07-15T19:08:54.698Z,12.50
2023-07-15T19:11:57.808Z,11.07
2023-07-15T19:15:00.907Z,12.77
2023-07-15T19:18:05.495Z,13.17
2023-07-15T19:21:08.684Z,12.70
2023-07-15T19:27:37.302Z,11.70
2023-07-15T19:30:40.593Z,11.60
2023-07-15T19:33:46.932Z,11.67
2023-07-15T19:36:50.209Z,12.40
2023-07-15T19:39:53.239Z,11.93
2023-07-15T19:42:56.346Z,12.23
2023-07-15T19:45:59.492Z,12.20
2023-07-15T19:49:04.312Z,12.03
2023-07-15T19:52:07.903Z,14.23
2023-07-15T19:55:10.951Z,13.60
2023-07-15T19:58:14.086Z,14.33
2023-07-15T20:01:17.136Z,12.20
2023-07-15T20:04:21.741Z,13.47
2023-07-15T20:07:24.912Z,13.07
2023-07-15T20:10:28.152Z,13.17
2023-07-15T20:13:31.265Z,13.30
2023-07-15T20:16:36.065Z,12.57
2023-07-15T20:19:40.967Z,13.33
2023-07-15T20:22:44.242Z,13.30
2023-07-15T20:25:47.623Z,12.17
2023-07-15T20:28:50.818Z,13.70
2023-07-15T20:31:53.967Z,13.10
2023-07-15T20:34:58.788Z,13.20
2023-07-15T20:38:01.866Z,13.30
2023-07-15T20:41:06.036Z,13.03
2023-07-15T20:44:09.365Z,14.07
2023-07-15T20:47:12.449Z,14.10
2023-07-15T20:50:18.183Z,13.60
2023-07-15T20:53:21.412Z,14.70
2023-07-15T20:56:24.571Z,14.67
2023-07-15T20:59:27.649Z,15.23
2023-07-15T21:02:30.771Z,13.43
2023-07-15T21:05:35.441Z,14.13
2023-07-15T21:08:38.639Z,14.30
2023-07-15T21:11:42.080Z,14.80
2023-07-15T21:14:45.157Z,13.73
2023-07-15T21:17:48.269Z,16.47
2023-07-15T21:20:54.255Z,19.73
2023-07-15T21:23:57.865Z,14.37
2023-07-15T21:27:00.945Z,15.77
2023-07-15T21:30:05.175Z,15.03
2023-07-15T21:33:08.194Z,15.63
2023-07-15T21:36:12.846Z,14.03
2023-07-15T21:39:16.545Z,14.40
2023-07-15T21:42:19.647Z,14.87
2023-07-15T21:45:22.727Z,14.73
2023-07-15T21:48:25.807Z,16.57
2023-07-15T21:51:30.273Z,14.30
2023-07-15T21:54:33.275Z,14.73
2023-07-15T21:57:36.481Z,14.13
2023-07-15T22:00:40.012Z,13.50
2023-07-15T22:03:43.206Z,14.60
2023-07-15T22:06:47.769Z,15.50
2023-07-15T22:09:50.789Z,15.40
2023-07-15T22:12:53.846Z,15.30
2023-07-15T22:15:57.171Z,14.03
2023-07-15T22:19:00.242Z,14.87
2023-07-15T22:22:05.007Z,15.20
2023-07-15T22:25:09.151Z,14.43
2023-07-15T22:28:12.249Z,14.50
2023-07-15T22:31:15.364Z,13.73
2023-07-15T22:34:18.517Z,14.63
2023-07-15T22:37:23.058Z,15.67
2023-07-15T22:40:26.109Z,14.97
2023-07-15T22:43:29.231Z,15.23
2023-07-15T22:46:32.345Z,15.20
2023-07-15T22:49:35.429Z,14.40
2023-07-15T22:52:40.824Z,13.87
2023-07-15T22:55:43.922Z,13.70
2023-07-15T22:58:47.076Z,13.77
2023-07-15T23:01:50.450Z,14.47
2023-07-15T23:04:53.653Z,13.70
2023-07-15T23:07:58.092Z,13.53
2023-07-15T23:11:01.280Z,14.03
2023-07-15T23:14:04.460Z,13.17
2023-07-15T23:17:08.055Z,12.83
2023-07-15T23:20:11.551Z,13.73
2023-07-15T23:23:17.932Z,12.50
2023-07-15T23:26:21.516Z,13.00
2023-07-15T23:29:24.612Z,11.07
2023-07-15T23:32:29.816Z,12.17
2023-07-15T23:35:33.492Z,11.47
2023-07-15T23:38:38.810Z,11.30
2023-07-15T23:41:41.974Z,11.13
2023-07-15T23:44:45.082Z,10.80
2023-07-15T23:47:48.236Z,10.87
2023-07-15T23:50:51.421Z,10.87
2023-07-15T23:53:55.909Z,11.27
2023-07-15T23:56:59.007Z,10.33
